createdAt,value
2022-09-30T00:00:24.910Z,100.00
2022-09-30T00:02:53.902Z,100.00
2022-09-30T00:05:23.179Z,100.00
2022-09-30T00:07:52.118Z,100.00
2022-09-30T00:10:20.944Z,100.00
2022-09-30T00:12:50.014Z,100.00
2022-09-30T00:15:19.205Z,100.00
2022-09-30T00:17:48.237Z,100.00
2022-09-30T00:20:17.355Z,100.00
2022-09-30T00:22:46.487Z,100.00
2022-09-30T00:25:17.173Z,100.00
2022-09-30T00:27:46.674Z,100.00
2022-09-30T00:30:15.707Z,100.00
2022-09-30T00:32:44.700Z,100.00
2022-09-30T00:35:13.641Z,100.00
2022-09-30T00:37:42.660Z,100.00
2022-09-30T00:40:13.226Z,100.00
2022-09-30T00:42:43.060Z,100.00
2022-09-30T00:45:14.803Z,100.00
2022-09-30T00:47:56.066Z,100.00
2022-09-30T00:50:39.572Z,100.00
2022-09-30T00:53:20.376Z,100.00
2022-09-30T00:56:01.928Z,100.00
2022-09-30T00:58:48.743Z,100.00
2022-09-30T01:01:20.869Z,100.00
2022-09-30T01:03:56.068Z,100.00
2022-09-30T01:06:28.031Z,100.00
2022-09-30T01:08:59.449Z,100.00
2022-09-30T01:11:30.242Z,100.00
2022-09-30T01:14:04.706Z,100.00
2022-09-30T01:17:10.131Z,100.00
2022-09-30T01:20:04.455Z,100.00
2022-09-30T01:22:42.441Z,100.00
2022-09-30T01:25:46.970Z,100.00
2022-09-30T01:28:37.727Z,100.00
2022-09-30T01:31:27.759Z,100.00
2022-09-30T01:34:27.893Z,100.00
2022-09-30T01:37:19.460Z,100.00
2022-09-30T01:40:05.402Z,100.00
2022-09-30T01:42:52.229Z,100.00
2022-09-30T01:45:51.125Z,100.00
2022-09-30T01:48:24.248Z,100.00
2022-09-30T01:51:11.549Z,100.00
2022-09-30T01:53:52.720Z,100.00
2022-09-30T01:56:43.657Z,100.00
2022-09-30T01:59:37.681Z,100.00
2022-09-30T02:02:22.932Z,100.00
2022-09-30T02:05:20.454Z,100.00
2022-09-30T02:08:24.853Z,100.00
2022-09-30T02:11:03.023Z,100.00
2022-09-30T02:13:59.701Z,100.00
2022-09-30T02:16:35.799Z,100.00
2022-09-30T02:19:21.691Z,100.00
2022-09-30T02:22:05.072Z,100.00
2022-09-30T02:24:38.146Z,100.00
2022-09-30T02:27:13.026Z,100.00
2022-09-30T02:29:47.836Z,99.75
2022-09-30T02:32:26.200Z,98.85
2022-09-30T02:35:07.735Z,98.35
2022-09-30T02:37:40.762Z,98.78
2022-09-30T02:40:14.844Z,98.21
2022-09-30T02:42:47.018Z,98.67
2022-09-30T02:45:21.760Z,98.24
2022-09-30T02:48:23.596Z,97.62
2022-09-30T02:51:25.622Z,96.60
2022-09-30T02:54:21.287Z,96.03
2022-09-30T02:57:05.596Z,96.02
2022-09-30T02:59:35.351Z,95.48
2022-09-30T03:02:04.576Z,95.26
2022-09-30T03:04:36.924Z,94.98
2022-09-30T03:07:05.977Z,94.92
2022-09-30T03:09:37.344Z,95.68
2022-09-30T03:12:18.051Z,94.98
2022-09-30T03:15:20.877Z,94.07
2022-09-30T03:18:08.158Z,93.46
2022-09-30T03:20:55.843Z,93.57
2022-09-30T03:23:52.937Z,94.01
2022-09-30T03:26:48.719Z,91.88
2022-09-30T03:29:38.228Z,91.50
2022-09-30T03:32:32.249Z,89.96
2022-09-30T03:35:13.574Z,89.23
2022-09-30T03:38:04.962Z,86.96
2022-09-30T03:40:43.107Z,86.33
2022-09-30T03:43:44.991Z,82.74
2022-09-30T03:46:31.150Z,82.94
2022-09-30T03:49:06.354Z,81.66
2022-09-30T03:51:41.444Z,81.59
2022-09-30T03:54:13.673Z,80.88
2022-09-30T03:56:45.795Z,82.08
2022-09-30T03:59:26.782Z,81.18
2022-09-30T04:01:58.442Z,81.15
2022-09-30T04:04:28.757Z,80.13
2022-09-30T04:06:57.986Z,79.82
2022-09-30T04:09:28.564Z,79.67
2022-09-30T04:11:58.066Z,79.38
2022-09-30T04:14:27.450Z,77.78
2022-09-30T04:16:56.739Z,78.60
2022-09-30T04:19:25.910Z,75.67
2022-09-30T04:21:56.389Z,75.38
2022-09-30T04:24:26.498Z,76.16
2022-09-30T04:26:55.636Z,73.97
2022-09-30T04:29:24.802Z,74.52
2022-09-30T04:31:53.853Z,71.91
2022-09-30T04:34:23.145Z,74.11
2022-09-30T04:36:52.321Z,73.54
2022-09-30T04:39:21.729Z,73.63
2022-09-30T04:41:55.128Z,72.55
2022-09-30T04:44:24.479Z,72.37
2022-09-30T04:46:53.983Z,72.40
2022-09-30T04:49:26.736Z,70.94
2022-09-30T04:51:56.862Z,70.90
2022-09-30T04:54:26.475Z,70.63
2022-09-30T04:56:58.033Z,69.00
2022-09-30T04:59:27.690Z,67.70
2022-09-30T05:01:56.580Z,68.31
2022-09-30T05:04:26.123Z,69.46
2022-09-30T05:06:57.243Z,69.02
2022-09-30T05:09:32.391Z,68.29
2022-09-30T05:12:04.312Z,68.09
2022-09-30T05:14:34.707Z,69.01
2022-09-30T05:17:04.714Z,67.93
2022-09-30T05:19:34.336Z,67.43
2022-09-30T05:22:04.433Z,64.93
2022-09-30T05:24:33.570Z,64.40
2022-09-30T05:27:22.369Z,66.23
2022-09-30T05:29:52.475Z,62.93
2022-09-30T05:32:22.843Z,64.39
2022-09-30T05:34:53.027Z,64.90
2022-09-30T05:37:22.482Z,63.69
2022-09-30T05:39:52.501Z,64.23
2022-09-30T05:42:22.487Z,63.74
2022-09-30T05:44:53.280Z,62.48
2022-09-30T05:47:22.881Z,61.23
2022-09-30T05:49:55.983Z,62.15
2022-09-30T05:52:26.150Z,60.27
2022-09-30T05:55:02.331Z,60.78
2022-09-30T05:57:31.585Z,61.45
2022-09-30T06:00:00.482Z,62.07
2022-09-30T06:02:32.494Z,62.51
2022-09-30T06:05:01.907Z,61.23
2022-09-30T06:07:30.818Z,62.62
2022-09-30T06:09:59.910Z,61.30
2022-09-30T06:12:29.784Z,60.72
2022-09-30T06:14:59.128Z,61.39
2022-09-30T06:17:28.101Z,61.07
2022-09-30T06:19:57.883Z,61.58
2022-09-30T06:22:28.148Z,62.34
2022-09-30T06:24:57.790Z,63.37
2022-09-30T06:27:29.826Z,62.46
2022-09-30T06:30:07.423Z,62.01
2022-09-30T06:32:36.446Z,61.18
2022-09-30T06:35:05.518Z,62.22
2022-09-30T06:37:38.019Z,60.98
2022-09-30T06:40:08.638Z,60.20
2022-09-30T06:42:37.644Z,60.18
2022-09-30T06:45:07.068Z,59.73
2022-09-30T06:47:36.306Z,59.51
2022-09-30T06:50:05.889Z,59.98
2022-09-30T06:52:35.882Z,58.10
2022-09-30T06:55:05.199Z,59.86
2022-09-30T06:57:34.478Z,59.12
2022-09-30T07:00:04.327Z,60.23
2022-09-30T07:02:35.662Z,60.16
2022-09-30T07:05:05.126Z,57.76
2022-09-30T07:07:35.989Z,57.65
2022-09-30T07:10:06.075Z,58.24
2022-09-30T07:12:35.679Z,59.17
2022-09-30T07:15:05.304Z,57.96
2022-09-30T07:17:34.482Z,57.89
2022-09-30T07:20:03.386Z,59.26
2022-09-30T07:22:33.192Z,58.13
2022-09-30T07:25:05.145Z,58.33
2022-09-30T07:27:35.147Z,57.21
2022-09-30T07:30:16.118Z,56.32
2022-09-30T07:32:48.004Z,55.81
2022-09-30T07:35:16.948Z,56.13
2022-09-30T07:37:47.025Z,55.78
2022-09-30T07:40:19.375Z,57.96
2022-09-30T07:42:48.977Z,56.86
2022-09-30T07:45:20.190Z,56.89
2022-09-30T07:47:53.532Z,58.86
2022-09-30T07:50:23.793Z,57.25
2022-09-30T07:52:55.056Z,57.54
2022-09-30T07:55:24.351Z,56.91
2022-09-30T07:57:53.537Z,58.91
2022-09-30T08:00:41.596Z,59.29
2022-09-30T08:03:11.721Z,57.89
2022-09-30T08:05:42.540Z,58.56
2022-09-30T08:08:12.168Z,57.27
2022-09-30T08:10:41.204Z,57.77
2022-09-30T08:13:14.803Z,56.28
2022-09-30T08:15:45.178Z,57.61
2022-09-30T08:18:14.346Z,57.27
2022-09-30T08:20:43.367Z,57.05
2022-09-30T08:23:12.524Z,58.36
2022-09-30T08:25:41.699Z,58.46
2022-09-30T08:28:10.991Z,59.34
2022-09-30T08:30:41.080Z,58.06
2022-09-30T08:33:10.422Z,58.04
2022-09-30T08:35:39.395Z,56.72
2022-09-30T08:38:08.413Z,57.20
2022-09-30T08:40:52.078Z,57.13
2022-09-30T08:43:28.889Z,58.09
2022-09-30T08:46:17.420Z,58.52
2022-09-30T08:48:53.942Z,59.24
2022-09-30T08:51:53.448Z,57.62
2022-09-30T08:54:26.663Z,57.31
2022-09-30T08:56:56.753Z,57.20
2022-09-30T08:59:34.979Z,57.63
2022-09-30T09:02:17.590Z,56.74
2022-09-30T09:04:49.342Z,58.25
2022-09-30T09:07:36.254Z,58.42
2022-09-30T09:10:14.357Z,58.76
2022-09-30T09:13:18.572Z,58.52
2022-09-30T09:15:56.364Z,58.40
2022-09-30T09:18:35.148Z,57.93
2022-09-30T09:21:21.557Z,56.84
2022-09-30T09:23:53.509Z,58.95
2022-09-30T09:26:24.322Z,58.90
2022-09-30T09:29:22.181Z,59.14
2022-09-30T09:31:51.425Z,59.63
2022-09-30T09:34:20.673Z,58.90
2022-09-30T09:37:10.220Z,57.60
2022-09-30T09:39:51.709Z,58.14
2022-09-30T09:42:43.353Z,58.97
2022-09-30T09:45:30.274Z,58.11
2022-09-30T09:48:01.228Z,59.79
2022-09-30T09:50:30.505Z,58.78
2022-09-30T09:53:25.459Z,58.19
2022-09-30T09:56:01.176Z,58.11
2022-09-30T09:58:30.861Z,57.96
2022-09-30T10:01:29.980Z,58.91
2022-09-30T10:04:12.594Z,57.98
2022-09-30T10:06:56.893Z,58.70
2022-09-30T10:09:33.985Z,58.37
2022-09-30T10:12:08.961Z,58.53
2022-09-30T10:15:02.062Z,56.20
2022-09-30T10:17:36.787Z,54.63
2022-09-30T10:20:22.197Z,57.29
2022-09-30T10:22:51.990Z,56.52
2022-09-30T10:25:26.129Z,57.58
2022-09-30T10:28:01.345Z,60.70
2022-09-30T10:30:42.161Z,57.17
2022-09-30T10:33:31.586Z,58.43
2022-09-30T10:36:12.220Z,58.37
2022-09-30T10:39:01.248Z,59.11
2022-09-30T10:41:35.454Z,60.62
2022-09-30T10:44:09.458Z,59.46
2022-09-30T10:46:41.639Z,59.46
2022-09-30T10:49:12.991Z,58.39
2022-09-30T10:51:47.309Z,59.16
2022-09-30T10:54:42.473Z,57.63
2022-09-30T10:57:31.222Z,59.30
2022-09-30T11:00:02.097Z,61.10
2022-09-30T11:02:36.379Z,61.26
2022-09-30T11:05:08.434Z,60.71
2022-09-30T11:07:49.385Z,59.68
2022-09-30T11:10:52.305Z,60.28
2022-09-30T11:13:58.235Z,60.27
2022-09-30T11:17:22.909Z,60.31
2022-09-30T11:20:11.565Z,60.57
2022-09-30T11:22:48.991Z,60.67
2022-09-30T11:25:37.608Z,60.83
2022-09-30T11:28:43.330Z,60.79
2022-09-30T11:31:21.681Z,59.10
2022-09-30T11:33:58.477Z,60.09
2022-09-30T11:36:45.088Z,59.30
2022-09-30T11:39:31.453Z,59.46
2022-09-30T11:42:11.683Z,58.41
2022-09-30T11:44:44.919Z,59.85
2022-09-30T11:47:48.559Z,60.91
2022-09-30T11:50:31.233Z,59.82
2022-09-30T11:53:14.746Z,61.08
2022-09-30T11:56:02.136Z,59.83
2022-09-30T11:58:42.483Z,60.77
2022-09-30T12:01:22.973Z,61.38
2022-09-30T12:04:09.584Z,61.64
2022-09-30T12:06:48.321Z,61.29
2022-09-30T12:09:23.847Z,61.23
2022-09-30T12:12:16.238Z,61.61
2022-09-30T12:14:58.011Z,63.79
2022-09-30T12:17:47.795Z,65.69
2022-09-30T12:20:29.133Z,66.98
2022-09-30T12:23:31.599Z,68.96
2022-09-30T12:26:02.744Z,69.97
2022-09-30T12:29:20.147Z,69.31
2022-09-30T12:32:10.628Z,70.64
2022-09-30T12:35:02.418Z,71.38
2022-09-30T12:37:31.528Z,71.98
2022-09-30T12:40:33.967Z,72.14
2022-09-30T12:43:08.627Z,72.48
2022-09-30T12:46:14.650Z,73.25
2022-09-30T12:48:49.889Z,73.44
2022-09-30T12:51:31.213Z,73.95
2022-09-30T12:54:27.157Z,74.36
2022-09-30T12:57:05.006Z,75.26
2022-09-30T12:59:40.207Z,75.67
2022-09-30T13:02:10.112Z,75.24
2022-09-30T13:04:44.546Z,75.38
2022-09-30T13:07:20.404Z,75.53
2022-09-30T13:10:23.285Z,75.32
2022-09-30T13:13:12.759Z,76.24
2022-09-30T13:15:47.149Z,75.47
2022-09-30T13:18:21.990Z,76.01
2022-09-30T13:20:51.130Z,76.81
2022-09-30T13:23:43.242Z,76.46
2022-09-30T13:26:25.624Z,76.12
2022-09-30T13:28:55.340Z,76.50
2022-09-30T13:31:26.247Z,76.63
2022-09-30T13:34:04.336Z,76.25
2022-09-30T13:36:39.770Z,76.52
2022-09-30T13:39:48.051Z,76.58
2022-09-30T13:42:30.681Z,76.59
2022-09-30T13:45:08.875Z,77.09
2022-09-30T13:47:50.467Z,77.03
2022-09-30T13:50:30.297Z,77.70
2022-09-30T13:53:03.785Z,77.89
2022-09-30T13:55:47.526Z,76.63
2022-09-30T13:58:54.057Z,76.50
2022-09-30T14:01:28.974Z,76.59
2022-09-30T14:04:14.186Z,76.67
2022-09-30T14:06:58.318Z,77.11
2022-09-30T14:09:45.726Z,77.58
2022-09-30T14:12:45.155Z,77.75
2022-09-30T14:15:25.475Z,78.04
2022-09-30T14:18:22.334Z,77.77
2022-09-30T14:21:29.595Z,77.31
2022-09-30T14:24:11.126Z,77.28
2022-09-30T14:27:05.102Z,77.37
2022-09-30T14:29:53.345Z,77.12
2022-09-30T14:32:56.417Z,77.89
2022-09-30T14:35:31.045Z,77.47
2022-09-30T14:38:04.736Z,77.77
2022-09-30T14:40:37.457Z,78.82
2022-09-30T14:43:10.635Z,79.67
2022-09-30T14:45:45.640Z,80.70
2022-09-30T14:48:29.738Z,80.59
2022-09-30T14:51:21.478Z,79.98
2022-09-30T14:53:58.360Z,80.51
2022-09-30T14:56:36.407Z,81.03
2022-09-30T14:59:34.067Z,80.19
2022-09-30T15:02:11.328Z,80.88
2022-09-30T15:04:47.811Z,81.41
2022-09-30T15:07:17.428Z,81.27
2022-09-30T15:09:48.869Z,81.91
2022-09-30T15:12:21.879Z,82.43
2022-09-30T15:15:00.061Z,82.26
2022-09-30T15:17:37.544Z,82.26
2022-09-30T15:20:33.995Z,82.25
2022-09-30T15:23:11.400Z,83.26
2022-09-30T15:25:42.436Z,84.14
2022-09-30T15:28:15.351Z,84.63
2022-09-30T15:30:46.067Z,84.37
2022-09-30T15:33:21.627Z,84.78
2022-09-30T15:35:54.420Z,84.38
2022-09-30T15:38:31.681Z,84.75
2022-09-30T15:41:15.693Z,85.55
2022-09-30T15:43:55.111Z,86.08
2022-09-30T15:46:31.070Z,86.46
2022-09-30T15:49:06.559Z,86.71
2022-09-30T15:51:41.383Z,87.00
2022-09-30T15:54:28.698Z,87.50
2022-09-30T15:56:58.659Z,87.24
2022-09-30T16:00:04.301Z,87.13
2022-09-30T16:02:34.059Z,88.19
2022-09-30T16:05:08.030Z,87.75
2022-09-30T16:07:38.179Z,88.27
2022-09-30T16:10:23.299Z,88.57
2022-09-30T16:15:23.328Z,89.24
2022-09-30T16:17:56.494Z,89.53
2022-09-30T16:20:27.983Z,89.56
2022-09-30T16:23:03.825Z,90.02
2022-09-30T16:25:38.491Z,89.97
2022-09-30T16:28:18.545Z,90.07
2022-09-30T16:30:55.521Z,90.30
2022-09-30T16:33:25.577Z,90.90
2022-09-30T16:35:55.477Z,90.39
2022-09-30T16:38:28.553Z,90.90
2022-09-30T16:40:59.459Z,91.05
2022-09-30T16:43:35.096Z,91.35
2022-09-30T16:46:17.565Z,91.21
2022-09-30T16:48:51.987Z,91.40
2022-09-30T16:51:23.082Z,91.42
2022-09-30T16:53:55.115Z,92.14
2022-09-30T16:56:29.581Z,91.75
2022-09-30T16:59:04.439Z,91.69
2022-09-30T17:01:38.237Z,91.69
2022-09-30T17:04:15.225Z,91.92
2022-09-30T17:06:58.247Z,92.46
2022-09-30T17:09:27.831Z,92.46
2022-09-30T17:11:58.355Z,92.73
2022-09-30T17:14:33.244Z,93.11
2022-09-30T17:17:09.767Z,93.05
2022-09-30T17:19:44.018Z,93.85
2022-09-30T17:22:17.355Z,94.01
2022-09-30T17:24:48.025Z,93.87
2022-09-30T17:27:24.700Z,94.12
2022-09-30T17:29:59.512Z,94.78
2022-09-30T17:32:35.129Z,94.95
2022-09-30T17:35:11.514Z,95.28
2022-09-30T17:37:46.354Z,95.69
2022-09-30T17:40:38.265Z,96.42
2022-09-30T17:43:09.561Z,96.42
2022-09-30T17:45:43.292Z,96.91
2022-09-30T17:48:16.321Z,97.18
2022-09-30T17:50:52.458Z,97.39
2022-09-30T17:53:22.744Z,96.75
2022-09-30T17:56:06.206Z,97.33
2022-09-30T17:58:36.280Z,97.81
2022-09-30T18:01:12.706Z,98.30
2022-09-30T18:03:46.850Z,98.12
2022-09-30T18:06:21.712Z,98.38
2022-09-30T18:09:13.483Z,98.10
2022-09-30T18:11:44.604Z,98.59
2022-09-30T18:14:15.448Z,97.86
2022-09-30T18:16:46.752Z,98.16
2022-09-30T18:19:18.970Z,98.72
2022-09-30T18:21:48.319Z,97.13
2022-09-30T18:24:20.751Z,98.02
2022-09-30T18:26:50.637Z,97.84
2022-09-30T18:29:22.358Z,97.78
2022-09-30T18:31:53.262Z,98.46
2022-09-30T18:34:26.319Z,98.49
2022-09-30T18:36:55.996Z,99.11
2022-09-30T18:39:25.935Z,99.54
2022-09-30T18:41:57.656Z,99.57
2022-09-30T18:44:30.354Z,99.31
2022-09-30T18:47:01.717Z,98.97
2022-09-30T18:49:31.156Z,99.27
2022-09-30T18:52:00.799Z,98.71
2022-09-30T18:54:30.933Z,99.03
2022-09-30T18:57:01.015Z,99.53
2022-09-30T18:59:30.714Z,99.23
2022-09-30T19:02:01.493Z,99.57
2022-09-30T19:04:30.770Z,98.97
2022-09-30T19:06:59.961Z,99.91
2022-09-30T19:09:29.522Z,100.00
2022-09-30T19:11:58.522Z,100.00
2022-09-30T19:14:31.866Z,100.00
2022-09-30T19:17:01.305Z,100.00
2022-09-30T19:19:30.519Z,99.98
2022-09-30T19:22:02.982Z,99.98
2022-09-30T19:24:31.522Z,99.17
2022-09-30T19:27:00.719Z,99.58
2022-09-30T19:29:30.430Z,98.81
2022-09-30T19:32:02.681Z,99.30
2022-09-30T19:34:32.653Z,99.24
2022-09-30T19:37:01.763Z,99.06
2022-09-30T19:39:43.312Z,98.94
2022-09-30T19:42:15.519Z,99.15
2022-09-30T19:44:44.606Z,99.12
2022-09-30T19:47:13.715Z,99.60
2022-09-30T19:49:43.806Z,99.15
2022-09-30T19:52:20.908Z,99.04
2022-09-30T19:54:51.971Z,99.41
2022-09-30T19:57:20.990Z,99.69
2022-09-30T19:59:56.568Z,99.41
2022-09-30T20:02:26.503Z,100.00
2022-09-30T20:04:55.817Z,100.00
2022-09-30T20:07:25.036Z,100.00
2022-09-30T20:09:57.981Z,100.00
2022-09-30T20:12:27.324Z,100.00
2022-09-30T20:15:14.866Z,99.90
2022-09-30T20:17:44.529Z,99.22
2022-09-30T20:20:32.042Z,99.92
2022-09-30T20:23:04.711Z,99.91
2022-09-30T20:25:36.173Z,99.54
2022-09-30T20:28:07.213Z,98.86
2022-09-30T20:30:46.450Z,99.17
2022-09-30T20:33:27.319Z,99.17
2022-09-30T20:35:56.416Z,99.84
2022-09-30T20:38:25.846Z,99.49
2022-09-30T20:40:59.798Z,99.50
2022-09-30T20:43:33.429Z,99.83
2022-09-30T20:46:06.699Z,99.15
2022-09-30T20:48:40.961Z,99.38
2022-09-30T20:51:13.390Z,99.15
2022-09-30T20:53:48.702Z,99.02
2022-09-30T20:56:18.548Z,99.03
2022-09-30T20:58:47.693Z,98.77
2022-09-30T21:01:20.710Z,99.09
2022-09-30T21:03:51.991Z,98.13
2022-09-30T21:06:31.394Z,98.86
2022-09-30T21:09:04.298Z,98.98
2022-09-30T21:11:34.559Z,98.80
2022-09-30T21:14:03.872Z,97.72
2022-09-30T21:16:32.981Z,97.75
2022-09-30T21:19:02.066Z,97.88
2022-09-30T21:21:31.444Z,98.89
2022-09-30T21:24:01.138Z,99.26
2022-09-30T21:26:30.910Z,99.03
2022-09-30T21:29:01.051Z,99.87
2022-09-30T21:31:31.582Z,99.29
2022-09-30T21:34:02.014Z,99.55
2022-09-30T21:36:33.312Z,100.00
2022-09-30T21:39:07.072Z,100.00
2022-09-30T21:41:36.889Z,100.00
2022-09-30T21:44:05.946Z,100.00
2022-09-30T21:46:36.782Z,100.00
2022-09-30T21:49:08.671Z,100.00
2022-09-30T21:51:38.226Z,100.00
2022-09-30T21:54:07.757Z,100.00
2022-09-30T21:56:37.507Z,100.00
2022-09-30T21:59:07.134Z,100.00
2022-09-30T22:01:37.711Z,100.00
2022-09-30T22:04:07.874Z,100.00
2022-09-30T22:06:36.918Z,99.95
2022-09-30T22:09:06.697Z,100.00
2022-09-30T22:11:37.483Z,100.00
2022-09-30T22:14:07.305Z,100.00
2022-09-30T22:16:36.494Z,100.00
2022-09-30T22:19:08.303Z,100.00
2022-09-30T22:21:39.782Z,99.43
2022-09-30T22:24:12.785Z,100.00
2022-09-30T22:26:42.942Z,100.00
2022-09-30T22:29:13.520Z,100.00
2022-09-30T22:31:43.105Z,100.00
2022-09-30T22:34:33.381Z,100.00
2022-09-30T22:37:21.141Z,100.00
2022-09-30T22:39:50.171Z,100.00
2022-09-30T22:42:19.294Z,100.00
2022-09-30T22:44:49.039Z,100.00
2022-09-30T22:47:18.794Z,100.00
2022-09-30T22:49:50.913Z,100.00
2022-09-30T22:52:21.659Z,100.00
2022-09-30T22:54:50.690Z,100.00
2022-09-30T22:57:19.543Z,100.00
2022-09-30T22:59:48.802Z,100.00
2022-09-30T23:02:18.055Z,100.00
2022-09-30T23:04:47.807Z,100.00
2022-09-30T23:07:16.889Z,100.00
2022-09-30T23:09:48.852Z,100.00
2022-09-30T23:12:19.367Z,100.00
2022-09-30T23:14:48.803Z,100.00
2022-09-30T23:17:17.882Z,100.00
2022-09-30T23:19:47.135Z,100.00
2022-09-30T23:22:16.245Z,100.00
2022-09-30T23:24:45.174Z,100.00
2022-09-30T23:27:14.262Z,100.00
2022-09-30T23:29:43.227Z,100.00
2022-09-30T23:32:12.222Z,100.00
2022-09-30T23:34:41.635Z,100.00
2022-09-30T23:37:10.708Z,100.00
2022-09-30T23:39:40.628Z,100.00
2022-09-30T23:42:09.515Z,100.00
2022-09-30T23:44:38.465Z,100.00
2022-09-30T23:47:19.467Z,100.00
2022-09-30T23:49:48.712Z,99.93
2022-09-30T23:52:18.776Z,100.00
2022-09-30T23:54:48.213Z,100.00
2022-09-30T23:57:17.019Z,99.75
2022-09-30T23:59:46.263Z,100.00
